الصفحة الرئيسية
METAR-TAF:

METAR-TAF

مطار :

مطار جيبوتي الدولي

جيبوتي, جيبوتي

دائرة عرض: 11-33N, خط طول: 043-10E, ارتفاع: 49 متر

مراقبة الطقس الحالي

تاريخ ووقت الإصدار 19 دقيقة قبل الساعة 15:00UTC
ريح 8 عقدة من الشرق
درجة الحرارة 29°درجة مئوية
الرطوبة 70%
ضغط 1008 hPa
الرؤية 10 كم أو أكثر
غيوم متفرقة على ارتفاع 2300 قدم

METAR: HDAM 241500Z 10008KT 9999 SCT023 29/23 Q1008

زمن: 18:19 (15:19 UTC)

توقعات

تاريخ ووقت الإصدار 4ساعات و 19 دقيقة قبل الساعة 11:00UTC
التوقعات صالحة من24 الساعة 12 UTC إلى 25 الساعة 12 UTC
ريح 12 عقدة من الشرق
غيوم متفرقة على ارتفاع 2300 قدم
أصبح
من 24 الساعة 15 UTC إلى 24 الساعة 18 UTC
ريح 5 عقدةمن اتجاهات متغيرة
غيوم قليلة على ارتفاع 2000 قدم
أصبح
من 25 الساعة 00 UTC إلى 25 الساعة 06 UTC
ريح 10 عقدة من الشرق
غيوم متفرقة على ارتفاع 2000 قدم

TAF: HDAM 241100Z 2412/2512 08012KT 9/9 SCT023 BECMG 2415/2418 VRB05KT FEW020 BECMG 2500/2506 10010KT SCT020

أرصاد الطقس والتوقعات من أكثر من 4000 مطار (تقارير الطقس للمطار METAR والتنبؤ بالطقس بالمطارTAF).

المحطات المتاحة هي النقط الصفراء والحمراء على الخريطة.

حرك المؤشر فوق النقطة لمعرفة اسم المحطة.

ثم انقر لمعرفة أرصاد وتوقعات الطقس.

لتغيير الخارطة: اضغط على الأزرار الخضراء مع رمز الصليب الأسود للتكبير. على الزر الأخضر مع شرطة للتصغير، أو على الأسهم الخضراء للخرائط المجاورة.


METAR-TAF: